Time;durP1;ratioP1;P1;durP2;ratioP2;P2;SDS_P1;SDS_P2;PMS_P1;PMS_P2;Temp;Humidity;BMP_temperature;BMP_pressure;BME280_temperature;BME280_humidity;BME280_pressure;Samples;Min_cycle;Max_cycle;Signal;HPM_P1;HPM_P2
2023/10/15 00:00:55;;;;;;;;;;;;;;;11.62;100.00;99468.66;5031430;28;846;-65
2023/10/15 00:03:21;;;;;;;;;;;;;;;11.55;100.00;99460.47;5031335;28;823;-65
2023/10/15 00:05:48;;;;;;;;;;;;;;;11.51;100.00;99456.19;5031570;28;842;-63
2023/10/15 00:08:14;;;;;;;;;;;;;;;11.46;100.00;99460.22;5031453;28;909;-65
2023/10/15 00:10:41;;;;;;;;;;;;;;;11.40;100.00;99456.34;5031528;28;1300;-63
2023/10/15 00:13:07;;;;;;;;;;;;;;;11.41;100.00;99446.81;5031372;28;1193;-65
2023/10/15 00:15:35;;;;;;;;;;;;;;;11.41;100.00;99444.06;5031471;28;1262;-65
2023/10/15 00:18:02;;;;;;;;;;;;;;;11.36;100.00;99445.31;5034692;28;1922;-65
2023/10/15 00:20:37;;;;;;;;;;;;;;;11.34;100.00;99430.34;5035172;28;779;-65
2023/10/15 00:23:06;;;;;;;;;;;;;;;11.32;100.00;99435.50;5034666;28;846;-65
2023/10/15 00:25:35;;;;;;;;;;;;;;;11.31;100.00;99425.63;5034496;28;849;-65
2023/10/15 00:28:06;;;;;;;;;;;;;;;11.29;100.00;99422.47;5034600;28;814;-63
2023/10/15 00:30:32;;;;;;;;;;;;;;;11.30;100.00;99418.53;5034445;28;842;-63
2023/10/15 00:33:03;;;;;;;;;;;;;;;11.29;100.00;99420.53;5034588;28;833;-65
2023/10/15 00:35:33;;;;;;;;;;;;;;;11.28;100.00;99420.94;5034388;28;822;-63
2023/10/15 00:38:07;;;;;;;;;;;;;;;11.28;100.00;99412.63;5034497;28;1955;-63
2023/10/15 00:40:41;;;;;;;;;;;;;;;11.26;100.00;99412.25;5034364;28;803;-63
2023/10/15 00:43:07;;;;;;;;;;;;;;;11.25;100.00;99408.72;5034308;28;890;-63
2023/10/15 00:45:44;;;;;;;;;;;;;;;11.23;100.00;99409.13;5034466;28;854;-63
2023/10/15 00:48:22;;;;;;;;;;;;;;;11.23;100.00;99414.66;5034274;28;901;-63
2023/10/15 00:50:48;;;;;;;;;;;;;;;11.21;100.00;99403.22;5034250;28;857;-63
2023/10/15 00:53:23;;;;;;;;;;;;;;;11.19;100.00;99402.88;5034189;28;869;-62
2023/10/15 00:55:50;;;;;;;;;;;;;;;11.18;100.00;99397.75;5034029;28;1255;-63
2023/10/15 00:58:22;;;;;;;;;;;;;;;11.16;100.00;99395.41;5034551;28;1956;-62
2023/10/15 01:03:19;;;;;;;;;;;;;;;11.13;100.00;99390.69;5033814;28;870;-63
2023/10/15 01:05:53;;;;;;;;;;;;;;;11.13;100.00;99390.69;5033884;28;803;-63
2023/10/15 01:08:26;;;;;;;;;;;;;;;11.13;100.00;99387.16;5034030;28;921;-63
2023/10/15 01:11:11;;;;;;;;;;;;;;;11.10;100.00;99382.47;5033953;28;1189;-63
2023/10/15 01:13:38;;;;;;;;;;;;;;;11.07;100.00;99380.50;5033604;28;1289;-63
2023/10/15 01:16:08;;;;;;;;;;;;;;;11.03;100.00;99383.31;5033391;28;1418;-63
2023/10/15 01:18:36;;;;;;;;;;;;;;;11.01;100.00;99369.16;5033635;28;1973;-63
2023/10/15 01:21:04;;;;;;;;;;;;;;;10.99;100.00;99368.78;5034102;28;823;-63
2023/10/15 01:23:45;;;;;;;;;;;;;;;10.95;100.00;99365.28;5033809;28;855;-63
2023/10/15 01:26:23;;;;;;;;;;;;;;;10.90;100.00;99371.25;5033380;28;834;-63
2023/10/15 01:28:51;;;;;;;;;;;;;;;10.88;100.00;99370.88;5032461;28;854;-63
2023/10/15 01:31:18;;;;;;;;;;;;;;;10.85;100.00;99369.75;5033431;28;818;-63
2023/10/15 01:33:49;;;;;;;;;;;;;;;10.82;100.00;99373.34;5033381;28;898;-63
2023/10/15 01:36:39;;;;;;;;;;;;;;;10.80;100.00;99371.00;5033308;28;894;-63
2023/10/15 01:39:09;;;;;;;;;;;;;;;10.76;100.00;99373.00;5031830;28;1894;-63
2023/10/15 01:41:39;;;;;;;;;;;;;;;10.75;100.00;99370.66;5033255;28;838;-63
2023/10/15 01:44:07;;;;;;;;;;;;;;;10.76;100.00;99369.47;5033143;28;815;-63
2023/10/15 01:46:44;;;;;;;;;;;;;;;10.76;100.00;99370.25;5015328;28;830;-65
2023/10/15 01:49:17;;;;;;;;;;;;;;;10.75;100.00;99373.41;5033092;28;874;-64
2023/10/15 01:51:45;;;;;;;;;;;;;;;10.74;100.00;99369.09;5032958;28;819;-65
2023/10/15 01:54:16;;;;;;;;;;;;;;;10.72;100.00;99375.03;5032950;28;842;-65
2023/10/15 01:56:45;;;;;;;;;;;;;;;10.71;100.00;99379.00;5032866;28;932;-65
2023/10/15 01:59:11;;;;;;;;;;;;;;;10.69;100.00;99369.53;5033049;28;1894;-65
2023/10/15 02:01:41;;;;;;;;;;;;;;;10.66;100.00;99373.94;5032945;28;1245;-64
2023/10/15 02:04:26;;;;;;;;;;;;;;;10.65;100.00;99375.13;5032775;28;818;-64
2023/10/15 02:06:53;;;;;;;;;;;;;;;10.65;100.00;99371.56;5032873;28;1278;-64
2023/10/15 02:09:22;;;;;;;;;;;;;;;10.63;100.00;99375.53;5032674;28;910;-65
2023/10/15 02:11:53;;;;;;;;;;;;;;;10.42;100.00;99339.88;5032861;28;889;-65
2023/10/15 02:14:27;;;;;;;;;;;;;;;10.67;100.00;99367.22;5032482;28;1372;-65
2023/10/15 02:16:54;;;;;;;;;;;;;;;10.69;100.00;99367.59;5032651;28;873;-65
2023/10/15 02:19:40;;;;;;;;;;;;;;;10.71;100.00;99367.97;5032372;28;1957;-65
2023/10/15 02:22:07;;;;;;;;;;;;;;;10.72;100.00;99368.72;5014556;28;1296;-65
2023/10/15 02:24:34;;;;;;;;;;;;;;;10.72;100.00;99368.72;5032265;28;811;-65
2023/10/15 02:27:05;;;;;;;;;;;;;;;10.66;100.00;99373.16;5032396;28;886;-65
2023/10/15 02:32:07;;;;;;;;;;;;;;;10.57;100.00;99376.41;5032198;28;830;-65
2023/10/15 02:34:40;;;;;;;;;;;;;;;10.59;100.00;99371.25;5032427;28;901;-65
2023/10/15 02:37:10;;;;;;;;;;;;;;;10.61;100.00;99375.16;5032210;28;929;-65
2023/10/15 02:39:44;;;;;;;;;;;;;;;10.58;100.00;99370.47;5032120;28;1973;-65
2023/10/15 02:42:11;;;;;;;;;;;;;;;10.55;100.00;99365.00;5014375;28;1280;-65
2023/10/15 02:44:38;;;;;;;;;;;;;;;10.52;100.00;99361.06;5032144;28;955;-64
2023/10/15 02:47:19;;;;;;;;;;;;;;;10.50;100.00;99359.94;5032227;28;846;-65
2023/10/15 02:50:17;;;;;;;;;;;;;;;10.41;100.00;99350.16;5031937;28;883;-65
2023/10/15 02:52:42;;;;;;;;;;;;;;;10.36;100.00;99345.06;5031039;28;1036;-65
2023/10/15 02:55:11;;;;;;;;;;;;;;;10.38;100.00;99347.41;5031944;28;811;-65
2023/10/15 02:57:39;;;;;;;;;;;;;;;10.35;100.00;99343.50;5032098;28;1890;-64
2023/10/15 03:00:13;;;;;;;;;;;;;;;10.35;100.00;99343.50;5032279;28;1282;-64
2023/10/15 03:02:44;;;;;;;;;;;;;;;10.38;100.00;99344.66;5031945;28;815;-65
2023/10/15 03:05:13;;;;;;;;;;;;;;;10.37;100.00;99338.34;5031911;28;906;-65
2023/10/15 03:07:43;;;;;;;;;;;;;;;10.37;100.00;99335.59;5031834;28;791;-64
2023/10/15 03:10:12;;;;;;;;;;;;;;;10.36;100.00;99324.94;5031731;28;891;-64
2023/10/15 03:12:43;;;;;;;;;;;;;;;10.37;100.00;99319.00;5031572;28;1123;-65
2023/10/15 03:15:16;;;;;;;;;;;;;;;10.19;100.00;99296.31;5032332;28;1129;-64
2023/10/15 03:17:46;;;;;;;;;;;;;;;10.41;100.00;99327.25;5031659;28;1977;-64
2023/10/15 03:22:44;;;;;;;;;;;;;;;10.45;100.00;99327.22;5031379;28;812;-64
2023/10/15 03:25:14;;;;;;;;;;;;;;;10.47;100.00;99330.34;5031733;28;888;-64
2023/10/15 03:27:40;;;;;;;;;;;;;;;10.44;100.00;99326.44;5031618;28;827;-64
2023/10/15 03:30:10;;;;;;;;;;;;;;;10.41;100.00;99324.47;5031493;28;1012;-64
2023/10/15 03:32:41;;;;;;;;;;;;;;;10.38;100.00;99334.38;5031705;28;831;-65
2023/10/15 03:35:32;;;;;;;;;;;;;;;10.37;100.00;99338.34;5031521;28;913;-64
2023/10/15 03:38:13;;;;;;;;;;;;;;;10.37;100.00;99337.56;5031562;28;1909;-65
2023/10/15 03:40:49;;;;;;;;;;;;;;;10.42;100.00;99337.13;5031560;28;834;-64
2023/10/15 03:43:20;;;;;;;;;;;;;;;10.47;100.00;99338.63;5031550;28;847;-64
2023/10/15 03:45:53;;;;;;;;;;;;;;;10.50;100.00;99333.06;5031554;28;806;-64
2023/10/15 03:48:30;;;;;;;;;;;;;;;10.51;100.00;99334.63;5031479;28;900;-64
2023/10/15 03:50:58;;;;;;;;;;;;;;;10.49;100.00;99328.72;5032633;28;913;-64
2023/10/15 03:53:28;;;;;;;;;;;;;;;10.47;100.00;99322.81;5035295;28;920;-64
2023/10/15 03:55:58;;;;;;;;;;;;;;;10.42;100.00;99321.31;5035302;28;853;-64
2023/10/15 03:58:28;;;;;;;;;;;;;;;10.33;100.00;99317.50;5035107;28;1893;-64
2023/10/15 04:01:17;;;;;;;;;;;;;;;10.23;100.00;99314.41;5035164;28;857;-64
2023/10/15 04:03:49;;;;;;;;;;;;;;;10.14;100.00;99318.84;5035090;28;808;-64
2023/10/15 04:06:18;;;;;;;;;;;;;;;10.08;100.00;99312.22;5035291;28;889;-64
2023/10/15 04:09:09;;;;;;;;;;;;;;;10.07;100.00;99324.44;5034951;28;831;-64
2023/10/15 04:11:42;;;;;;;;;;;;;;;10.10;100.00;99324.41;5034842;28;807;-64
2023/10/15 04:14:14;;;;;;;;;;;;;;;10.18;100.00;99331.44;5034918;28;1416;-64
2023/10/15 04:16:46;;;;;;;;;;;;;;;10.32;100.00;99332.50;5035046;28;815;-64
2023/10/15 04:19:17;;;;;;;;;;;;;;;10.35;100.00;99326.16;5034894;28;1918;-64
2023/10/15 04:21:44;;;;;;;;;;;;;;;10.29;100.00;99322.25;5034665;28;882;-64
2023/10/15 04:24:14;;;;;;;;;;;;;;;10.07;100.00;99318.91;5033512;28;857;-64
2023/10/15 04:26:42;;;;;;;;;;;;;;;10.08;100.00;99326.78;5034621;28;834;-64
2023/10/15 04:29:18;;;;;;;;;;;;;;;10.30;100.00;99321.84;5034600;28;835;-64
2023/10/15 04:31:51;;;;;;;;;;;;;;;10.46;100.00;99320.50;5034431;28;863;-64
2023/10/15 04:34:18;;;;;;;;;;;;;;;10.42;100.00;99318.53;5034488;28;834;-64
2023/10/15 04:36:44;;;;;;;;;;;;;;;10.39;100.00;99318.59;5016765;28;1195;-64
2023/10/15 04:39:12;;;;;;;;;;;;;;;10.31;100.00;99312.38;5034384;28;1889;-64
2023/10/15 04:41:42;;;;;;;;;;;;;;;10.25;100.00;99318.75;5034286;28;869;-64
2023/10/15 04:44:13;;;;;;;;;;;;;;;10.22;100.00;99320.34;5034273;28;850;-64
2023/10/15 04:46:43;;;;;;;;;;;;;;;10.23;100.00;99321.91;5016545;28;1356;-64
2023/10/15 04:49:10;;;;;;;;;;;;;;;10.22;100.00;99312.84;5034274;28;842;-64
2023/10/15 04:51:42;;;;;;;;;;;;;;;10.20;100.00;99319.97;5034126;28;925;-64
2023/10/15 04:54:10;;;;;;;;;;;;;;;10.20;100.00;99311.69;5016396;28;905;-64
2023/10/15 04:56:36;;;;;;;;;;;;;;;10.22;100.00;99317.59;5034016;28;858;-65
2023/10/15 04:59:04;;;;;;;;;;;;;;;10.28;100.00;99321.44;5033986;28;1953;-65
2023/10/15 05:01:34;;;;;;;;;;;;;;;10.45;100.00;99310.63;5033746;28;950;-65
2023/10/15 05:04:01;;;;;;;;;;;;;;;10.62;100.00;99317.91;5034213;28;866;-65
2023/10/15 05:06:27;;;;;;;;;;;;;;;10.80;100.00;99312.94;5034039;28;870;-65
2023/10/15 05:08:55;;;;;;;;;;;;;;;10.95;100.00;99312.75;5034332;28;1194;-65
2023/10/15 05:11:23;;;;;;;;;;;;;;;11.05;100.00;99300.72;5034194;28;906;-65
2023/10/15 05:13:50;;;;;;;;;;;;;;;11.09;100.00;99304.22;5033834;28;1133;-65
2023/10/15 05:16:17;;;;;;;;;;;;;;;11.13;100.00;99310.47;5033834;28;850;-65
2023/10/15 05:18:44;;;;;;;;;;;;;;;11.20;100.00;99307.63;5033693;28;1914;-66
2023/10/15 05:21:13;;;;;;;;;;;;;;;11.27;100.00;99314.25;5033604;28;869;-66
2023/10/15 05:23:40;;;;;;;;;;;;;;;11.23;100.00;99312.31;5033601;28;894;-66
2023/10/15 05:26:06;;;;;;;;;;;;;;;11.29;100.00;99311.81;5033560;28;953;-66
2023/10/15 05:28:32;;;;;;;;;;;;;;;11.37;100.00;99311.31;5033581;28;922;-66
2023/10/15 05:30:58;;;;;;;;;;;;;;;11.47;100.00;99315.09;5015595;28;1517;-67
2023/10/15 05:33:25;;;;;;;;;;;;;;;11.63;100.00;99315.22;5033548;28;843;-66
2023/10/15 05:35:52;;;;;;;;;;;;;;;11.81;100.00;99322.44;5033657;28;843;-66
2023/10/15 05:38:18;;;;;;;;;;;;;;;11.79;100.00;99324.84;5033561;28;1951;-66
2023/10/15 05:40:45;;;;;;;;;;;;;;;11.82;100.00;99324.00;5033758;28;811;-66
2023/10/15 05:43:12;;;;;;;;;;;;;;;11.91;100.00;99321.50;5033341;28;799;-67
2023/10/15 05:45:39;;;;;;;;;;;;;;;12.08;100.00;99318.81;5033501;28;1197;-67
2023/10/15 05:48:07;;;;;;;;;;;;;;;12.22;100.00;99315.78;5033416;28;861;-66
2023/10/15 05:50:34;;;;;;;;;;;;;;;12.37;100.00;99317.06;5015349;28;1216;-67
2023/10/15 05:53:02;;;;;;;;;;;;;;;12.50;100.00;99319.97;5033240;28;823;-67
2023/10/15 05:55:29;;;;;;;;;;;;;;;12.68;100.00;99314.06;5032988;28;844;-66
2023/10/15 05:57:55;;;;;;;;;;;;;;;12.85;100.00;99312.88;5032855;28;1921;-67
2023/10/15 06:00:28;;;;;;;;;;;;;;;13.05;100.00;99318.38;5033111;28;890;-67
2023/10/15 06:02:55;;;;;;;;;;;;;;;13.19;100.00;99317.28;5033037;28;889;-67
2023/10/15 06:05:22;;;;;;;;;;;;;;;13.40;100.00;99315.22;5032871;28;815;-67
2023/10/15 06:07:49;;;;;;;;;;;;;;;13.53;100.00;99313.34;5032715;28;878;-67
2023/10/15 06:10:16;;;;;;;;;;;;;;;13.60;100.00;99312.38;5032779;28;1020;-67
2023/10/15 06:12:43;;;;;;;;;;;;;;;13.81;100.00;99317.38;5032472;28;1051;-67
2023/10/15 06:15:11;;;;;;;;;;;;;;;14.02;100.00;99304.94;5031975;28;1502;-68
2023/10/15 06:17:38;;;;;;;;;;;;;;;14.26;100.00;99313.03;5032707;28;1961;-67
2023/10/15 06:20:14;;;;;;;;;;;;;;;14.37;100.00;99309.94;5032425;28;847;-67
2023/10/15 06:22:41;;;;;;;;;;;;;;;14.34;100.00;99311.63;5032736;28;791;-67
2023/10/15 06:25:11;;;;;;;;;;;;;;;14.39;100.00;99311.06;5032464;28;807;-67
2023/10/15 06:27:38;;;;;;;;;;;;;;;14.61;100.00;99310.47;5033046;28;776;-68
2023/10/15 06:30:06;;;;;;;;;;;;;;;14.91;100.00;99314.75;5032483;28;1306;-67
2023/10/15 06:32:34;;;;;;;;;;;;;;;15.11;100.00;99322.91;5032373;28;944;-68
2023/10/15 06:35:01;;;;;;;;;;;;;;;15.16;100.00;99316.75;5032384;28;843;-67
2023/10/15 06:37:27;;;;;;;;;;;;;;;15.13;100.00;99312.09;5032480;28;951;-67
2023/10/15 06:39:54;;;;;;;;;;;;;;;15.30;100.00;99312.75;5032379;28;2230;-67
2023/10/15 06:42:22;;;;;;;;;;;;;;;15.58;100.00;99311.03;5032430;28;1268;-68
2023/10/15 07:13:17;;;;;;;;;;;;;;;20.22;100.00;99303.44;5786099;23;1717;-60
2023/10/15 07:15:45;;;;;;;;;;;;;;;20.40;100.00;99294.88;5012011;28;862;-59
2023/10/15 07:18:11;;;;;;;;;;;;;;;20.57;100.00;99295.97;5011825;28;1902;-59
2023/10/15 07:20:39;;;;;;;;;;;;;;;20.60;100.00;99294.22;5011922;28;839;-59
2023/10/15 07:23:04;;;;;;;;;;;;;;;20.41;100.00;99293.59;5011858;28;854;-59
2023/10/15 07:25:34;;;;;;;;;;;;;;;19.92;100.00;99289.34;5012691;28;874;-59
2023/10/15 07:28:00;;;;;;;;;;;;;;;19.46;100.00;99292.44;5015942;28;850;-60
2023/10/15 07:30:28;;;;;;;;;;;;;;;19.07;100.00;99281.88;5015979;28;885;-59
2023/10/15 07:32:58;;;;;;;;;;;;;;;18.98;100.00;99287.53;5015776;28;935;-60
2023/10/15 07:35:25;;;;;;;;;;;;;;;19.10;100.00;99283.75;5015904;28;877;-60
2023/10/15 07:37:52;;;;;;;;;;;;;;;19.49;100.00;99283.84;5014523;28;1889;-60
2023/10/15 07:40:25;;;;;;;;;;;;;;;19.87;100.00;99278.81;5015925;28;847;-60
2023/10/15 07:42:59;;;;;;;;;;;;;;;20.59;100.00;99278.66;5015786;28;920;-60
2023/10/15 07:45:27;;;;;;;;;;;;;;;20.75;100.00;99285.78;5015522;28;957;-60
2023/10/15 07:47:54;;;;;;;;;;;;;;;20.70;100.00;99281.63;5015750;28;835;-60
2023/10/15 07:50:23;;;;;;;;;;;;;;;20.91;100.00;99281.69;5015556;28;819;-60
2023/10/15 07:52:51;;;;;;;;;;;;;;;21.13;100.00;99275.66;5015525;28;838;-61
2023/10/15 07:55:17;;;;;;;;;;;;;;;21.13;100.00;99279.25;5015696;28;807;-61
2023/10/15 07:57:43;;;;;;;;;;;;;;;20.80;100.00;99271.84;5015441;28;1975;-60
2023/10/15 08:00:23;;;;;;;;;;;;;;;20.84;100.00;99268.81;5015252;28;870;-61
2023/10/15 08:02:53;;;;;;;;;;;;;;;20.94;100.00;99267.47;5015335;28;937;-61
2023/10/15 08:05:22;;;;;;;;;;;;;;;21.10;100.00;99273.81;5015450;28;1397;-61
2023/10/15 08:07:50;;;;;;;;;;;;;;;21.31;100.00;99261.34;5015225;28;1171;-60
2023/10/15 08:10:21;;;;;;;;;;;;;;;21.27;100.00;99263.59;5015228;28;814;-60
2023/10/15 08:12:56;;;;;;;;;;;;;;;21.18;100.00;99266.53;5014883;28;984;-61
2023/10/15 08:15:23;;;;;;;;;;;;;;;21.16;100.00;99261.41;5032866;28;1507;-61
2023/10/15 08:17:50;;;;;;;;;;;;;;;21.18;100.00;99263.72;5016979;28;1975;-60
2023/10/15 08:20:16;;;;;;;;;;;;;;;21.41;100.00;99254.38;5034781;28;865;-61
2023/10/15 08:22:45;;;;;;;;;;;;;;;21.27;100.00;99254.41;5034698;28;858;-61
2023/10/15 08:25:14;;;;;;;;;;;;;;;21.55;100.00;99244.34;5034954;28;885;-60
2023/10/15 08:27:44;;;;;;;;;;;;;;;22.00;100.00;99244.88;5034545;28;933;-61
2023/10/15 08:30:14;;;;;;;;;;;;;;;21.92;100.00;99240.94;5017133;28;1258;-61
2023/10/15 08:32:40;;;;;;;;;;;;;;;21.84;100.00;99239.81;5034580;28;881;-60
2023/10/15 08:35:09;;;;;;;;;;;;;;;21.78;100.00;99239.75;5034607;28;803;-60
2023/10/15 08:37:36;;;;;;;;;;;;;;;21.88;100.00;99231.16;5033957;28;913;-61
2023/10/15 08:40:06;;;;;;;;;;;;;;;22.09;100.00;99231.91;5034709;28;1890;-61
2023/10/15 08:42:42;;;;;;;;;;;;;;;22.21;100.00;99230.72;5034655;28;984;-60
2023/10/15 08:45:09;;;;;;;;;;;;;;;22.26;100.00;99229.28;5034274;28;803;-60
2023/10/15 08:47:35;;;;;;;;;;;;;;;22.35;100.00;99221.44;5034454;28;806;-61
2023/10/15 08:50:02;;;;;;;;;;;;;;;22.10;100.00;99222.94;5034193;28;855;-60
2023/10/15 08:52:31;;;;;;;;;;;;;;;21.91;100.00;99224.53;5034158;28;949;-61
2023/10/15 08:55:00;;;;;;;;;;;;;;;21.86;100.00;99219.63;5034110;28;871;-61
2023/10/15 08:57:29;;;;;;;;;;;;;;;21.79;100.00;99215.22;5034436;28;783;-60
2023/10/15 08:59:57;;;;;;;;;;;;;;;21.97;100.00;99216.94;5034223;28;1879;-61
2023/10/15 09:02:24;;;;;;;;;;;;;;;21.86;100.00;99219.63;5034080;28;878;-60
2023/10/15 09:04:53;;;;;;;;;;;;;;;21.85;100.00;99204.00;5034211;28;951;-60
2023/10/15 09:07:20;;;;;;;;;;;;;;;21.75;100.00;99212.63;5033929;28;881;-60
2023/10/15 09:09:49;;;;;;;;;;;;;;;21.82;100.00;99205.78;5033968;28;1052;-60
2023/10/15 09:12:16;;;;;;;;;;;;;;;21.81;100.00;99199.38;5033667;28;972;-60
2023/10/15 09:14:47;;;;;;;;;;;;;;;21.61;100.00;99197.38;5033761;28;1269;-61
2023/10/15 09:17:17;;;;;;;;;;;;;;;21.78;100.00;99191.94;5033714;28;926;-61
2023/10/15 09:19:48;;;;;;;;;;;;;;;21.73;100.00;99198.28;5033662;28;1918;-60
2023/10/15 09:22:15;;;;;;;;;;;;;;;21.96;100.00;99184.47;5033563;28;837;-60
2023/10/15 09:24:42;;;;;;;;;;;;;;;22.25;100.00;99191.13;5033446;28;953;-60
2023/10/15 09:27:09;;;;;;;;;;;;;;;22.31;100.00;99195.56;5033423;28;942;-60
2023/10/15 09:29:36;;;;;;;;;;;;;;;22.52;100.00;99196.25;5033587;28;838;-60
2023/10/15 09:32:06;;;;;;;;;;;;;;;22.49;100.00;99194.44;5033325;28;892;-61
2023/10/15 09:34:33;;;;;;;;;;;;;;;22.40;100.00;99186.16;5033506;28;869;-60
2023/10/15 09:36:59;;;;;;;;;;;;;;;22.52;100.00;99182.16;5033321;28;837;-61
2023/10/15 09:39:27;;;;;;;;;;;;;;;22.55;100.00;99174.75;5033235;28;1947;-58
2023/10/15 09:41:55;;;;;;;;;;;;;;;22.74;100.00;99169.50;5033124;28;818;-61
2023/10/15 09:44:22;;;;;;;;;;;;;;;22.91;100.00;99155.53;5015571;28;2200;-61
2023/10/15 09:46:49;;;;;;;;;;;;;;;23.20;100.00;99158.03;5033296;28;1201;-61
2023/10/15 09:49:18;;;;;;;;;;;;;;;23.48;100.00;99148.91;5032257;28;829;-60
2023/10/15 09:51:47;;;;;;;;;;;;;;;23.79;100.00;99148.00;5033446;28;893;-59
2023/10/15 09:54:19;;;;;;;;;;;;;;;24.19;100.00;99145.19;5033017;28;945;-60
2023/10/15 09:56:47;;;;;;;;;;;;;;;24.08;100.00;99148.78;5015252;28;1828;-60
2023/10/15 09:59:14;;;;;;;;;;;;;;;24.21;100.00;99140.56;5032773;28;1961;-60
2023/10/15 10:01:44;;;;;;;;;;;;;;;24.17;100.00;99134.41;5033151;28;918;-60
2023/10/15 10:04:23;;;;;;;;;;;;;;;24.29;100.00;99140.84;5032667;28;897;-60
2023/10/15 10:06:49;;;;;;;;;;;;;;;24.15;100.00;99125.69;5032765;28;1046;-60
2023/10/15 10:09:39;;;;;;;;;;;;;;;24.18;100.00;99121.84;5032781;28;874;-60
2023/10/15 10:12:06;;;;;;;;;;;;;;;24.41;100.00;99119.00;4995561;28;1249;-60
2023/10/15 10:14:33;;;;;;;;;;;;;;;24.71;100.00;99119.25;5032552;28;1179;-60
2023/10/15 10:17:00;;;;;;;;;;;;;;;24.91;95.38;99109.69;5032555;28;914;-60
2023/10/15 10:19:27;;;;;;;;;;;;;;;24.84;84.89;99108.19;5032483;28;1914;-60
2023/10/15 10:21:55;;;;;;;;;;;;;;;24.90;82.89;99111.00;5032407;28;1009;-60
2023/10/15 10:24:23;;;;;;;;;;;;;;;25.02;81.31;99101.16;4998584;28;1135;-60
2023/10/15 10:26:56;;;;;;;;;;;;;;;25.02;79.27;99108.88;5032455;28;814;-60
2023/10/15 10:29:26;;;;;;;;;;;;;;;24.90;79.47;99111.00;5032374;28;806;-60
2023/10/15 10:31:55;;;;;;;;;;;;;;;24.89;80.18;99097.38;5031082;28;1835;-60
2023/10/15 10:34:29;;;;;;;;;;;;;;;24.94;79.71;99097.34;5032567;28;875;-60
2023/10/15 10:36:56;;;;;;;;;;;;;;;25.23;77.85;99093.16;5032152;28;873;-60
2023/10/15 10:39:25;;;;;;;;;;;;;;;25.55;76.42;99084.22;5032052;28;1958;-60
2023/10/15 10:41:58;;;;;;;;;;;;;;;25.66;75.74;99081.31;5032101;28;973;-60
2023/10/15 10:44:26;;;;;;;;;;;;;;;25.71;75.60;99076.16;5032058;28;945;-61
2023/10/15 10:46:53;;;;;;;;;;;;;;;25.66;75.00;99070.00;5032161;28;862;-60
2023/10/15 10:49:29;;;;;;;;;;;;;;;25.91;74.91;99060.88;5032006;28;891;-60
2023/10/15 10:52:06;;;;;;;;;;;;;;;26.11;74.06;99051.16;5032211;28;962;-60
2023/10/15 10:54:35;;;;;;;;;;;;;;;26.23;73.23;99049.75;5031960;28;874;-60
2023/10/15 10:57:04;;;;;;;;;;;;;;;26.47;72.50;99052.59;5031958;28;882;-60
2023/10/15 10:59:30;;;;;;;;;;;;;;;26.75;72.57;99045.13;5031665;28;1906;-60
2023/10/15 11:01:57;;;;;;;;;;;;;;;26.84;70.14;99039.06;5032162;28;798;-60
2023/10/15 11:04:25;;;;;;;;;;;;;;;26.90;65.98;99039.78;5031857;28;858;-59
2023/10/15 11:06:52;;;;;;;;;;;;;;;26.96;64.81;99034.03;5031777;28;878;-60
2023/10/15 11:09:25;;;;;;;;;;;;;;;26.81;64.38;99038.06;5031909;28;818;-60
2023/10/15 11:11:52;;;;;;;;;;;;;;;27.22;63.31;99033.47;5032133;28;850;-60
2023/10/15 11:14:23;;;;;;;;;;;;;;;27.54;62.53;99027.81;5031964;28;1191;-60
2023/10/15 11:16:50;;;;;;;;;;;;;;;27.41;60.81;99036.28;5031928;28;941;-61
2023/10/15 11:19:17;;;;;;;;;;;;;;;27.52;61.11;99035.34;5014098;28;1965;-60
2023/10/15 11:21:44;;;;;;;;;;;;;;;27.60;60.45;99033.41;5031655;28;853;-60
2023/10/15 11:24:12;;;;;;;;;;;;;;;27.67;59.79;99027.91;5031780;28;846;-60
2023/10/15 11:26:44;;;;;;;;;;;;;;;27.72;59.30;99026.28;5031614;28;832;-60
2023/10/15 11:29:13;;;;;;;;;;;;;;;27.85;56.39;99029.16;5031610;28;831;-60
2023/10/15 11:31:44;;;;;;;;;;;;;;;28.05;53.73;99029.88;5023350;28;902;-60
2023/10/15 11:34:11;;;;;;;;;;;;;;;28.12;53.66;99017.09;5031557;28;850;-57
2023/10/15 11:36:39;;;;;;;;;;;;;;;28.04;53.50;99020.59;5031429;28;843;-58
2023/10/15 11:39:08;;;;;;;;;;;;;;;28.19;52.64;99027.84;5031636;28;1906;-58
2023/10/15 11:41:39;;;;;;;;;;;;;;;28.58;51.34;99018.59;5031512;28;925;-58
2023/10/15 11:44:09;;;;;;;;;;;;;;;28.72;50.47;99022.19;5031862;28;882;-58
2023/10/15 11:46:35;;;;;;;;;;;;;;;29.10;47.95;99014.19;5031611;28;842;-58
2023/10/15 11:49:02;;;;;;;;;;;;;;;29.08;43.76;99011.09;5013909;28;814;-58
2023/10/15 11:51:29;;;;;;;;;;;;;;;29.06;43.31;99005.19;5031439;28;866;-58
2023/10/15 11:53:58;;;;;;;;;;;;;;;29.27;42.93;99007.31;5031570;28;867;-58
2023/10/15 11:56:26;;;;;;;;;;;;;;;29.73;41.19;99007.81;5031308;28;893;-58
2023/10/15 11:58:52;;;;;;;;;;;;;;;29.39;40.31;99002.91;5031186;28;1943;-57
2023/10/15 12:01:18;;;;;;;;;;;;;;;29.16;40.08;99004.75;5014022;28;845;-58
2023/10/15 12:03:44;;;;;;;;;;;;;;;29.18;39.86;98999.25;5031403;28;819;-57
2023/10/15 12:06:10;;;;;;;;;;;;;;;29.53;39.56;98992.22;5013659;28;1590;-58
2023/10/15 12:08:37;;;;;;;;;;;;;;;29.32;39.64;98992.22;5031177;28;898;-58
2023/10/15 12:11:04;;;;;;;;;;;;;;;29.58;39.87;98997.03;5031253;28;842;-58
2023/10/15 12:13:30;;;;;;;;;;;;;;;29.87;40.12;98988.56;5026515;28;1157;-58
2023/10/15 12:15:57;;;;;;;;;;;;;;;30.04;39.27;98986.06;5035126;28;944;-58
2023/10/15 12:18:22;;;;;;;;;;;;;;;29.96;38.53;98981.59;5034976;28;1910;-58
2023/10/15 12:20:51;;;;;;;;;;;;;;;29.71;38.54;98988.44;5034915;28;1240;-58
2023/10/15 12:23:20;;;;;;;;;;;;;;;29.65;38.74;98982.09;5034855;28;938;-58
2023/10/15 12:25:47;;;;;;;;;;;;;;;29.44;38.66;98976.38;5034676;28;870;-58
2023/10/15 12:28:15;;;;;;;;;;;;;;;29.51;39.02;98975.72;5034569;28;846;-58
2023/10/15 12:30:41;;;;;;;;;;;;;;;29.98;38.09;98976.13;5034508;28;926;-57
2023/10/15 12:33:08;;;;;;;;;;;;;;;30.22;37.39;98972.88;5034497;28;1005;-58
2023/10/15 12:35:34;;;;;;;;;;;;;;;30.45;36.62;98967.34;5034400;28;914;-58
2023/10/15 12:38:12;;;;;;;;;;;;;;;30.29;36.44;98971.44;5034197;28;1886;-58
2023/10/15 12:40:40;;;;;;;;;;;;;;;30.23;36.28;98965.84;5016772;28;1402;-58
2023/10/15 12:43:10;;;;;;;;;;;;;;;30.39;35.98;98966.00;5034550;28;911;-58
2023/10/15 12:45:37;;;;;;;;;;;;;;;30.40;35.95;98967.50;5034283;28;923;-57
2023/10/15 12:48:05;;;;;;;;;;;;;;;30.39;35.68;98972.44;5034189;28;866;-58
2023/10/15 12:50:31;;;;;;;;;;;;;;;30.11;34.61;98968.25;5034219;28;916;-58
2023/10/15 12:52:58;;;;;;;;;;;;;;;30.03;34.29;98966.66;5034193;28;842;-57
2023/10/15 12:55:24;;;;;;;;;;;;;;;30.14;34.19;98963.50;5034200;28;838;-58
2023/10/15 12:57:50;;;;;;;;;;;;;;;30.41;34.01;98957.63;5034079;28;824;-58
2023/10/15 13:00:17;;;;;;;;;;;;;;;29.99;34.12;98966.25;5034109;28;823;-58
2023/10/15 13:02:45;;;;;;;;;;;;;;;29.59;35.15;98967.22;5033907;28;883;-58
2023/10/15 13:05:15;;;;;;;;;;;;;;;29.60;35.34;98965.16;5034184;28;877;-58
2023/10/15 13:07:41;;;;;;;;;;;;;;;29.08;36.06;98956.25;5016728;28;840;-58
2023/10/15 13:10:09;;;;;;;;;;;;;;;28.82;36.64;98957.84;5033871;28;818;-57
2023/10/15 13:12:37;;;;;;;;;;;;;;;28.67;36.90;98954.84;5031082;28;1099;-60
2023/10/15 13:15:04;;;;;;;;;;;;;;;28.45;37.60;98953.19;5028613;28;1278;-58
2023/10/15 13:17:31;;;;;;;;;;;;;;;28.10;38.28;98953.09;5033781;28;1350;-58
2023/10/15 13:20:11;;;;;;;;;;;;;;;27.66;38.39;98951.78;5033675;28;1914;-57
2023/10/15 13:22:38;;;;;;;;;;;;;;;27.31;39.39;98950.78;5033647;28;944;-58
2023/10/15 13:25:05;;;;;;;;;;;;;;;27.11;39.79;98949.28;5033489;28;905;-58
2023/10/15 13:27:33;;;;;;;;;;;;;;;26.88;39.93;98946.78;5033800;28;979;-58
2023/10/15 13:30:03;;;;;;;;;;;;;;;26.71;40.50;98948.28;5033379;28;910;-58
2023/10/15 13:32:30;;;;;;;;;;;;;;;26.54;41.09;98951.31;5033733;28;898;-57
2023/10/15 13:34:56;;;;;;;;;;;;;;;26.43;41.26;98938.03;5033394;28;834;-57
2023/10/15 13:37:23;;;;;;;;;;;;;;;26.34;41.80;98947.69;5033253;28;886;-57
2023/10/15 13:39:56;;;;;;;;;;;;;;;26.26;41.71;98939.00;5015462;28;1886;-57
2023/10/15 13:42:22;;;;;;;;;;;;;;;26.17;42.48;98947.88;5033309;28;1413;-57
2023/10/15 13:44:49;;;;;;;;;;;;;;;26.21;42.49;98950.41;5015670;28;1257;-57